createdAt,value
2017-06-30T00:00:03.101Z,0
2017-06-30T00:01:12.691Z,0
2017-06-30T00:02:22.897Z,0
2017-06-30T00:03:32.807Z,0
2017-06-30T00:04:43.078Z,0
2017-06-30T00:05:52.663Z,0
2017-06-30T00:07:02.580Z,0
2017-06-30T00:08:12.788Z,0
2017-06-30T00:09:23.012Z,0
2017-06-30T00:10:32.758Z,0
2017-06-30T00:11:42.664Z,0
2017-06-30T00:12:52.573Z,0
2017-06-30T00:14:02.479Z,0
2017-06-30T00:15:12.076Z,0
2017-06-30T00:16:22.427Z,0
2017-06-30T00:17:32.647Z,0
2017-06-30T00:18:42.546Z,0
2017-06-30T00:19:52.751Z,0
2017-06-30T00:21:02.969Z,0
2017-06-30T00:22:12.407Z,0
2017-06-30T00:23:22.618Z,0
2017-06-30T00:24:32.223Z,0
2017-06-30T00:25:41.829Z,0
2017-06-30T00:26:51.729Z,0
2017-06-30T00:28:01.618Z,0
2017-06-30T00:29:11.536Z,0
2017-06-30T00:30:21.433Z,0
2017-06-30T00:31:31.655Z,0
2017-06-30T00:32:41.865Z,0
2017-06-30T00:33:51.459Z,0
2017-06-30T00:35:01.060Z,0
2017-06-30T00:36:10.964Z,0
2017-06-30T00:37:20.867Z,0
2017-06-30T00:38:31.068Z,0
2017-06-30T00:39:41.301Z,0
2017-06-30T00:40:50.891Z,0
2017-06-30T00:42:01.092Z,0
2017-06-30T00:43:11.057Z,0
2017-06-30T00:44:21.258Z,0
2017-06-30T00:45:30.866Z,0
2017-06-30T00:46:40.769Z,0
2017-06-30T00:47:50.680Z,0
2017-06-30T00:49:00.895Z,0
2017-06-30T00:50:11.094Z,0
2017-06-30T00:51:21.145Z,0
2017-06-30T00:52:31.045Z,0
2017-06-30T00:53:40.949Z,0
2017-06-30T00:54:50.842Z,0
2017-06-30T00:56:00.135Z,0
2017-06-30T00:57:10.384Z,0
2017-06-30T00:58:20.290Z,0
2017-06-30T00:59:29.588Z,0
2017-06-30T01:00:39.502Z,0
2017-06-30T01:01:49.711Z,0
2017-06-30T01:02:59.654Z,0
2017-06-30T01:04:09.548Z,0
2017-06-30T01:05:19.757Z,0
2017-06-30T01:06:29.656Z,0
2017-06-30T01:07:39.857Z,0
2017-06-30T01:08:49.441Z,0
2017-06-30T01:09:59.644Z,0
2017-06-30T01:11:09.537Z,0
2017-06-30T01:12:19.749Z,0
2017-06-30T01:13:29.955Z,0
2017-06-30T01:14:39.344Z,0
2017-06-30T01:15:49.544Z,0
2017-06-30T01:16:59.757Z,0
2017-06-30T01:18:09.643Z,0
2017-06-30T01:19:19.240Z,0
2017-06-30T01:20:29.142Z,0
2017-06-30T01:21:39.342Z,0
2017-06-30T01:22:49.240Z,0
2017-06-30T01:23:59.141Z,0
2017-06-30T01:25:09.045Z,0
2017-06-30T01:26:19.764Z,0
2017-06-30T01:27:29.659Z,0
2017-06-30T01:28:39.247Z,0
2017-06-30T01:29:48.836Z,0
2017-06-30T01:30:58.443Z,0
2017-06-30T01:32:08.638Z,0
2017-06-30T01:33:18.854Z,0
2017-06-30T01:34:28.755Z,0
2017-06-30T01:35:38.662Z,0
2017-06-30T01:36:48.249Z,0
2017-06-30T01:37:58.974Z,0
2017-06-30T01:39:08.890Z,0
2017-06-30T01:40:19.090Z,0
2017-06-30T01:41:29.318Z,0
2017-06-30T01:42:38.922Z,0
2017-06-30T01:43:49.166Z,0
2017-06-30T01:44:59.370Z,0
2017-06-30T01:46:08.963Z,0
2017-06-30T01:47:18.966Z,0
2017-06-30T01:48:28.883Z,0
2017-06-30T01:49:39.082Z,0
2017-06-30T01:50:49.285Z,0
2017-06-30T01:51:58.877Z,0
2017-06-30T01:53:08.782Z,0
2017-06-30T01:54:18.676Z,0
2017-06-30T01:55:28.979Z,0
2017-06-30T01:56:38.890Z,0
2017-06-30T01:57:48.796Z,0
2017-06-30T01:58:58.693Z,0
2017-06-30T02:00:07.982Z,0
2017-06-30T02:01:17.775Z,0
2017-06-30T02:02:27.975Z,0
2017-06-30T02:03:37.579Z,0
2017-06-30T02:04:47.175Z,0
2017-06-30T02:05:57.379Z,0
2017-06-30T02:07:07.175Z,0
2017-06-30T02:08:17.388Z,0
2017-06-30T02:09:26.992Z,0
2017-06-30T02:10:36.593Z,0
2017-06-30T02:11:46.217Z,0
2017-06-30T02:12:56.223Z,0
2017-06-30T02:14:05.849Z,0
2017-06-30T02:15:15.474Z,0
2017-06-30T02:16:25.379Z,0
2017-06-30T02:17:34.978Z,0
2017-06-30T02:18:44.569Z,0
2017-06-30T02:19:54.463Z,0
2017-06-30T02:21:04.394Z,0
2017-06-30T02:22:14.283Z,0
2017-06-30T02:23:24.510Z,0
2017-06-30T02:24:34.765Z,0
2017-06-30T02:25:44.672Z,0
2017-06-30T02:27:00.850Z,0
2017-06-30T02:28:10.132Z,0
2017-06-30T02:29:20.029Z,0
2017-06-30T02:30:30.093Z,0
2017-06-30T02:31:40.319Z,0
2017-06-30T02:32:50.541Z,0
2017-06-30T02:34:00.756Z,0
2017-06-30T02:35:11.348Z,0
2017-06-30T02:36:21.407Z,0
2017-06-30T02:37:30.710Z,0
2017-06-30T02:38:40.606Z,0
2017-06-30T02:39:50.501Z,0
2017-06-30T02:41:00.403Z,0
2017-06-30T02:42:10.614Z,0
2017-06-30T02:43:20.241Z,0
2017-06-30T02:44:30.511Z,0
2017-06-30T02:45:40.130Z,0
2017-06-30T02:46:50.362Z,0
2017-06-30T02:48:00.416Z,0
2017-06-30T02:49:10.010Z,0
2017-06-30T02:50:19.926Z,0
2017-06-30T02:51:29.518Z,0
2017-06-30T02:52:39.737Z,0
2017-06-30T02:53:49.478Z,0
2017-06-30T02:54:59.685Z,0
2017-06-30T02:56:09.626Z,0
2017-06-30T02:57:18.639Z,0
2017-06-30T02:58:28.894Z,0
2017-06-30T02:59:38.799Z,0
2017-06-30T03:00:49.021Z,0
2017-06-30T03:01:59.237Z,0
2017-06-30T03:03:08.215Z,0
2017-06-30T03:04:18.122Z,0
2017-06-30T03:05:27.478Z,0
2017-06-30T03:06:37.091Z,0
2017-06-30T03:07:46.991Z,0
2017-06-30T03:08:57.248Z,0
2017-06-30T03:10:06.546Z,0
2017-06-30T03:11:16.906Z,0
2017-06-30T03:12:26.804Z,4
2017-06-30T03:13:36.398Z,4
2017-06-30T03:14:45.689Z,4
2017-06-30T03:15:55.910Z,4
2017-06-30T03:17:05.926Z,4
2017-06-30T03:18:15.224Z,4
2017-06-30T03:19:25.113Z,4
2017-06-30T03:20:34.998Z,4
2017-06-30T03:21:44.301Z,8
2017-06-30T03:22:53.949Z,8
2017-06-30T03:24:03.561Z,12
2017-06-30T03:25:13.464Z,8
2017-06-30T03:26:23.369Z,12
2017-06-30T03:27:33.567Z,12
2017-06-30T03:28:43.217Z,16
2017-06-30T03:29:53.113Z,16
2017-06-30T03:31:03.320Z,20
2017-06-30T03:32:13.234Z,20
2017-06-30T03:33:23.127Z,28
2017-06-30T03:34:32.875Z,32
2017-06-30T03:35:42.771Z,36
2017-06-30T03:36:52.361Z,40
2017-06-30T03:38:02.258Z,40
2017-06-30T03:39:11.861Z,48
2017-06-30T03:40:21.917Z,52
2017-06-30T03:41:31.818Z,56
2017-06-30T03:42:41.711Z,60
2017-06-30T03:43:51.304Z,64
2017-06-30T03:45:01.502Z,68
2017-06-30T03:46:11.558Z,76
2017-06-30T03:47:21.784Z,76
2017-06-30T03:48:31.993Z,76
2017-06-30T03:49:41.895Z,80
2017-06-30T03:50:51.786Z,84
2017-06-30T03:52:02.146Z,88
2017-06-30T03:53:11.746Z,96
2017-06-30T03:54:21.345Z,96
2017-06-30T03:55:31.546Z,104
2017-06-30T03:56:41.190Z,108
2017-06-30T03:57:51.551Z,112
2017-06-30T03:59:01.464Z,116
2017-06-30T04:00:11.097Z,120
2017-06-30T04:01:20.682Z,128
2017-06-30T04:02:30.891Z,132
2017-06-30T04:03:41.255Z,136
2017-06-30T04:04:50.855Z,144
2017-06-30T04:06:00.764Z,148
2017-06-30T04:07:10.658Z,152
2017-06-30T04:08:20.864Z,160
2017-06-30T04:09:30.863Z,168
2017-06-30T04:10:40.777Z,172
2017-06-30T04:11:50.724Z,180
2017-06-30T04:13:00.932Z,180
2017-06-30T04:14:10.875Z,180
2017-06-30T04:15:21.130Z,180
2017-06-30T04:16:30.404Z,184
2017-06-30T04:17:40.618Z,184
2017-06-30T04:18:50.537Z,184
2017-06-30T04:20:00.751Z,180
2017-06-30T04:21:10.814Z,188
2017-06-30T04:22:21.034Z,196
2017-06-30T04:23:31.237Z,224
2017-06-30T04:24:41.200Z,240
2017-06-30T04:25:51.113Z,256
2017-06-30T04:27:01.536Z,256
2017-06-30T04:28:11.754Z,260
2017-06-30T04:29:21.378Z,264
2017-06-30T04:30:31.680Z,272
2017-06-30T04:31:41.602Z,296
2017-06-30T04:32:51.837Z,336
2017-06-30T04:34:02.057Z,360
2017-06-30T04:35:12.286Z,388
2017-06-30T04:36:21.890Z,420
2017-06-30T04:37:31.798Z,448
2017-06-30T04:38:41.882Z,476
2017-06-30T04:39:51.517Z,488
2017-06-30T04:41:01.416Z,504
2017-06-30T04:42:10.405Z,536
2017-06-30T04:43:20.611Z,560
2017-06-30T04:44:30.683Z,540
2017-06-30T04:45:40.900Z,540
2017-06-30T04:46:50.510Z,520
2017-06-30T04:48:00.724Z,476
2017-06-30T04:49:10.322Z,448
2017-06-30T04:50:20.374Z,464
2017-06-30T04:51:30.289Z,440
2017-06-30T04:52:39.897Z,432
2017-06-30T04:53:50.126Z,404
2017-06-30T04:54:59.440Z,384
2017-06-30T04:56:09.801Z,372
2017-06-30T04:57:19.391Z,380
2017-06-30T04:58:29.307Z,376
2017-06-30T04:59:39.211Z,388
2017-06-30T05:00:49.439Z,392
2017-06-30T05:01:59.665Z,384
2017-06-30T05:03:09.573Z,352
2017-06-30T05:04:19.828Z,324
2017-06-30T05:05:29.724Z,308
2017-06-30T05:06:39.082Z,292
2017-06-30T05:07:49.363Z,268
2017-06-30T05:08:59.284Z,260
2017-06-30T05:10:09.213Z,244
2017-06-30T05:11:19.150Z,248
2017-06-30T05:12:28.741Z,256
2017-06-30T05:13:39.119Z,280
2017-06-30T05:14:49.027Z,328
2017-06-30T05:15:59.242Z,352
2017-06-30T05:17:08.559Z,352
2017-06-30T05:18:18.491Z,408
2017-06-30T05:19:28.660Z,448
2017-06-30T05:20:38.263Z,456
2017-06-30T05:21:47.860Z,488
2017-06-30T05:22:57.771Z,488
2017-06-30T05:24:07.412Z,544
2017-06-30T05:25:17.792Z,532
2017-06-30T05:26:28.022Z,452
2017-06-30T05:27:37.338Z,396
2017-06-30T05:28:46.934Z,392
2017-06-30T05:29:57.160Z,408
2017-06-30T05:31:07.167Z,432
2017-06-30T05:32:17.082Z,544
2017-06-30T05:33:27.032Z,620
2017-06-30T05:34:36.642Z,608
2017-06-30T05:35:46.894Z,600
2017-06-30T05:36:56.972Z,608
2017-06-30T05:38:07.219Z,676
2017-06-30T05:39:17.133Z,648
2017-06-30T05:40:26.740Z,672
2017-06-30T05:41:36.735Z,716
2017-06-30T05:42:46.801Z,784
2017-06-30T05:43:56.397Z,868
2017-06-30T05:45:06.302Z,924
2017-06-30T05:46:16.504Z,956
2017-06-30T05:47:26.108Z,992
2017-06-30T05:48:36.159Z,892
2017-06-30T05:49:46.377Z,888
2017-06-30T05:50:56.600Z,856
2017-06-30T05:52:06.832Z,808
2017-06-30T05:53:17.047Z,860
2017-06-30T05:54:27.102Z,940
2017-06-30T05:55:37.010Z,868
2017-06-30T05:56:46.006Z,892
2017-06-30T05:57:56.210Z,1108
2017-06-30T05:59:06.425Z,836
2017-06-30T06:00:16.726Z,848
2017-06-30T06:01:26.647Z,976
2017-06-30T06:02:36.549Z,1124
2017-06-30T06:03:46.757Z,1188
2017-06-30T06:04:56.660Z,1300
2017-06-30T06:06:06.875Z,1252
2017-06-30T06:07:16.796Z,1120
2017-06-30T06:08:26.708Z,1124
2017-06-30T06:09:36.014Z,1088
2017-06-30T06:10:45.623Z,1144
2017-06-30T06:11:55.835Z,1028
2017-06-30T06:13:05.734Z,1052
2017-06-30T06:14:15.355Z,1032
2017-06-30T06:15:25.274Z,1172
2017-06-30T06:16:35.529Z,1460
2017-06-30T06:17:46.086Z,1408
2017-06-30T06:18:56.298Z,1372
2017-06-30T06:20:05.893Z,1444
2017-06-30T06:21:15.499Z,1268
2017-06-30T06:22:25.416Z,1112
2017-06-30T06:23:35.772Z,1168
2017-06-30T06:24:46.010Z,1228
2017-06-30T06:25:55.903Z,1272
2017-06-30T06:27:05.818Z,1472
2017-06-30T06:28:15.115Z,1640
2017-06-30T06:29:25.538Z,1856
2017-06-30T06:30:34.848Z,2052
2017-06-30T06:31:45.063Z,2100
2017-06-30T06:32:54.979Z,1948
2017-06-30T06:34:05.198Z,1616
2017-06-30T06:35:15.505Z,1392
2017-06-30T06:36:25.414Z,1572
2017-06-30T06:37:35.625Z,1948
2017-06-30T06:38:45.837Z,1908
2017-06-30T06:39:55.745Z,1452
2017-06-30T06:41:05.805Z,1376
2017-06-30T06:42:16.027Z,1384
2017-06-30T06:43:26.240Z,1392
2017-06-30T06:44:36.147Z,1368
2017-06-30T06:45:46.057Z,1372
2017-06-30T06:46:56.283Z,1636
2017-06-30T06:48:06.489Z,1792
2017-06-30T06:49:16.715Z,1812
2017-06-30T06:50:26.634Z,1704
2017-06-30T06:51:36.238Z,1568
2017-06-30T06:52:46.310Z,1512
2017-06-30T06:53:56.208Z,1436
2017-06-30T06:55:05.500Z,1380
2017-06-30T06:56:15.108Z,1316
2017-06-30T06:57:24.717Z,1452
2017-06-30T06:58:34.461Z,1736
2017-06-30T06:59:44.371Z,1732
2017-06-30T07:00:53.968Z,1956
2017-06-30T07:02:03.871Z,2172
2017-06-30T07:03:13.779Z,2360
2017-06-30T07:04:24.089Z,2492
2017-06-30T07:05:33.690Z,2716
2017-06-30T07:06:43.605Z,2636
2017-06-30T07:07:53.518Z,2484
2017-06-30T07:09:03.713Z,2708
2017-06-30T07:10:13.315Z,3096
2017-06-30T07:11:23.235Z,4004
2017-06-30T07:12:33.143Z,4928
2017-06-30T07:13:43.387Z,3704
2017-06-30T07:14:52.686Z,3728
2017-06-30T07:16:02.440Z,4140
2017-06-30T07:17:12.346Z,3896
2017-06-30T07:18:21.982Z,4440
2017-06-30T07:19:32.205Z,3672
2017-06-30T07:20:42.124Z,4472
2017-06-30T07:21:51.729Z,4616
2017-06-30T07:23:01.632Z,2348
2017-06-30T07:24:11.540Z,5756
2017-06-30T07:25:21.454Z,5936
2017-06-30T07:26:31.056Z,6092
2017-06-30T07:27:41.120Z,6216
2017-06-30T07:28:51.024Z,5956
2017-06-30T07:30:01.232Z,6016
2017-06-30T07:31:11.144Z,6396
2017-06-30T07:32:21.358Z,7408
2017-06-30T07:33:31.608Z,11980
2017-06-30T07:34:41.866Z,20736
2017-06-30T07:35:51.782Z,25984
2017-06-30T07:37:01.713Z,27712
2017-06-30T07:38:11.340Z,33152
2017-06-30T07:39:21.356Z,41920
2017-06-30T07:40:30.960Z,43712
2017-06-30T07:41:41.188Z,5044
2017-06-30T07:42:51.116Z,41216
2017-06-30T07:44:01.343Z,45888
2017-06-30T07:45:11.724Z,4184
2017-06-30T07:46:21.019Z,41056
2017-06-30T07:47:31.232Z,40416
2017-06-30T07:48:40.837Z,39488
2017-06-30T07:49:51.080Z,39456
2017-06-30T07:51:00.846Z,18116
2017-06-30T07:52:10.776Z,27040
2017-06-30T07:53:20.991Z,38784
2017-06-30T07:54:31.227Z,2792
2017-06-30T07:55:41.465Z,14564
2017-06-30T07:56:52.035Z,26112
2017-06-30T07:58:01.947Z,3112
2017-06-30T07:59:11.559Z,1504
2017-06-30T08:00:21.478Z,1840
2017-06-30T08:01:31.373Z,1496
2017-06-30T08:02:41.449Z,1252
2017-06-30T08:03:51.359Z,7020
2017-06-30T08:05:01.278Z,2512
2017-06-30T08:06:11.190Z,19040
2017-06-30T08:07:21.425Z,2404
2017-06-30T08:08:31.198Z,2628
2017-06-30T08:09:41.424Z,2460
2017-06-30T08:10:51.034Z,4220
2017-06-30T08:12:00.678Z,1200
2017-06-30T08:13:10.594Z,800
2017-06-30T08:14:20.662Z,960
2017-06-30T08:15:30.278Z,652
2017-06-30T08:16:39.886Z,612
2017-06-30T08:17:49.794Z,640
2017-06-30T08:18:59.702Z,524
2017-06-30T08:20:09.433Z,496
2017-06-30T08:21:19.347Z,488
2017-06-30T08:22:29.263Z,484
2017-06-30T08:23:38.898Z,520
2017-06-30T08:24:49.113Z,496
2017-06-30T08:25:59.697Z,536
2017-06-30T08:27:09.922Z,716
2017-06-30T08:28:20.145Z,660
2017-06-30T08:29:29.768Z,656
2017-06-30T08:30:39.681Z,656
2017-06-30T08:31:49.441Z,776
2017-06-30T08:32:58.758Z,896
2017-06-30T08:34:08.675Z,716
2017-06-30T08:35:18.911Z,584
2017-06-30T08:36:28.826Z,568
2017-06-30T08:37:38.479Z,544
2017-06-30T08:38:49.072Z,468
2017-06-30T08:39:59.292Z,604
2017-06-30T08:41:09.219Z,632
2017-06-30T08:42:19.459Z,888
2017-06-30T08:43:29.370Z,928
2017-06-30T08:44:39.289Z,868
2017-06-30T08:45:49.516Z,888
2017-06-30T08:46:59.135Z,960
2017-06-30T08:48:08.456Z,836
2017-06-30T08:49:18.062Z,960
2017-06-30T08:50:27.672Z,680
2017-06-30T08:51:37.295Z,436
2017-06-30T08:52:46.898Z,316
2017-06-30T08:53:56.832Z,248
2017-06-30T08:55:06.288Z,248
2017-06-30T08:56:16.206Z,300
2017-06-30T08:57:26.122Z,308
2017-06-30T08:58:35.740Z,324
2017-06-30T08:59:45.362Z,388
2017-06-30T09:00:55.577Z,396
2017-06-30T09:02:05.509Z,332
2017-06-30T09:03:15.420Z,324
2017-06-30T09:04:25.653Z,324
2017-06-30T09:05:35.882Z,388
2017-06-30T09:06:46.255Z,476
2017-06-30T09:07:56.489Z,568
2017-06-30T09:09:06.733Z,836
2017-06-30T09:10:16.650Z,1280
2017-06-30T09:11:26.275Z,1416
2017-06-30T09:12:36.342Z,1432
2017-06-30T09:13:46.258Z,1304
2017-06-30T09:14:56.487Z,1256
2017-06-30T09:16:06.137Z,1216
2017-06-30T09:17:16.055Z,1356
2017-06-30T09:18:25.971Z,1832
2017-06-30T09:19:36.198Z,2172
2017-06-30T09:20:46.411Z,1944
2017-06-30T09:21:56.026Z,1696
2017-06-30T09:23:05.343Z,1588
2017-06-30T09:24:15.309Z,1384
2017-06-30T09:25:24.918Z,1228
2017-06-30T09:26:34.519Z,1132
2017-06-30T09:27:44.126Z,1152
2017-06-30T09:28:54.041Z,1196
2017-06-30T09:30:03.800Z,1216
2017-06-30T09:31:13.100Z,1276
2017-06-30T09:32:23.022Z,1328
2017-06-30T09:33:32.632Z,1440
2017-06-30T09:34:42.552Z,1900
2017-06-30T09:35:52.011Z,2276
2017-06-30T09:37:01.921Z,1836
2017-06-30T09:38:11.836Z,1364
2017-06-30T09:39:22.058Z,1064
2017-06-30T09:40:32.265Z,920
2017-06-30T09:41:42.328Z,920
2017-06-30T09:42:52.537Z,876
2017-06-30T09:44:02.744Z,912
2017-06-30T09:45:12.398Z,944
2017-06-30T09:46:21.701Z,888
2017-06-30T09:47:31.323Z,824
2017-06-30T09:48:41.232Z,752
2017-06-30T09:49:50.846Z,616
2017-06-30T09:51:01.067Z,592
2017-06-30T09:52:10.663Z,692
2017-06-30T09:53:21.219Z,676
2017-06-30T09:54:31.130Z,648
2017-06-30T09:55:41.340Z,600
2017-06-30T09:56:51.565Z,592
2017-06-30T09:58:01.790Z,596
2017-06-30T09:59:12.365Z,624
2017-06-30T10:00:22.010Z,712
2017-06-30T10:01:31.916Z,816
2017-06-30T10:02:41.548Z,880
2017-06-30T10:03:51.145Z,1016
2017-06-30T10:05:01.522Z,944
2017-06-30T10:06:10.821Z,868
2017-06-30T10:07:21.049Z,808
2017-06-30T10:08:30.968Z,696
2017-06-30T10:09:40.569Z,624
2017-06-30T10:10:50.315Z,576
2017-06-30T10:12:00.568Z,556
2017-06-30T10:13:10.789Z,564
2017-06-30T10:14:20.699Z,612
2017-06-30T10:15:30.601Z,768
2017-06-30T10:16:41.173Z,1028
2017-06-30T10:17:50.486Z,1120
2017-06-30T10:19:00.111Z,1216
2017-06-30T10:20:09.727Z,1248
2017-06-30T10:21:19.940Z,1248
2017-06-30T10:22:30.364Z,1228
2017-06-30T10:23:40.265Z,1260
2017-06-30T10:24:50.481Z,1260
2017-06-30T10:25:59.790Z,1280
2017-06-30T10:27:09.697Z,1296
2017-06-30T10:28:19.710Z,1368
2017-06-30T10:29:29.326Z,1512
2017-06-30T10:30:38.946Z,1676
2017-06-30T10:31:48.874Z,1852
2017-06-30T10:32:58.182Z,2112
2017-06-30T10:34:08.199Z,2020
2017-06-30T10:35:18.120Z,1640
2017-06-30T10:36:28.332Z,1392
2017-06-30T10:37:38.246Z,1212
2017-06-30T10:38:48.154Z,896
2017-06-30T10:39:58.073Z,852
2017-06-30T10:41:07.983Z,812
2017-06-30T10:42:18.241Z,836
2017-06-30T10:43:28.472Z,840
2017-06-30T10:44:38.384Z,920
2017-06-30T10:45:48.144Z,988
2017-06-30T10:46:58.068Z,924
2017-06-30T10:48:07.661Z,880
2017-06-30T10:49:16.953Z,928
2017-06-30T10:50:26.890Z,1020
2017-06-30T10:51:37.269Z,1120
2017-06-30T10:52:47.263Z,1220
2017-06-30T10:53:57.195Z,1304
2017-06-30T10:55:07.429Z,1552
2017-06-30T10:56:17.659Z,1800
2017-06-30T10:57:27.993Z,1736
2017-06-30T10:58:37.617Z,1728
2017-06-30T10:59:47.529Z,1872
2017-06-30T11:00:57.434Z,1916
2017-06-30T11:02:07.348Z,1960
2017-06-30T11:03:17.317Z,2056
2017-06-30T11:04:27.235Z,2104
2017-06-30T11:05:36.846Z,2160
2017-06-30T11:06:46.770Z,1804
2017-06-30T11:07:56.691Z,1792
2017-06-30T11:09:06.764Z,1408
2017-06-30T11:10:16.358Z,1236
2017-06-30T11:11:26.266Z,916
2017-06-30T11:12:36.504Z,672
2017-06-30T11:13:46.726Z,584
2017-06-30T11:14:56.986Z,592
2017-06-30T11:16:07.222Z,572
2017-06-30T11:17:17.448Z,608
2017-06-30T11:18:27.358Z,660
2017-06-30T11:19:37.279Z,804
2017-06-30T11:20:47.668Z,1080
2017-06-30T11:21:57.284Z,1332
2017-06-30T11:23:06.893Z,1112
2017-06-30T11:24:16.500Z,1088
2017-06-30T11:25:26.120Z,1376
2017-06-30T11:26:36.029Z,1560
2017-06-30T11:27:45.638Z,1404
2017-06-30T11:28:55.261Z,1172
2017-06-30T11:30:05.166Z,1052
2017-06-30T11:31:15.090Z,1028
2017-06-30T11:32:25.055Z,1056
2017-06-30T11:33:35.369Z,1180
2017-06-30T11:34:45.601Z,1376
2017-06-30T11:35:55.818Z,1544
2017-06-30T11:37:05.740Z,1628
2017-06-30T11:38:16.004Z,1692
2017-06-30T11:39:25.917Z,1612
2017-06-30T11:40:36.140Z,1572
2017-06-30T11:41:46.436Z,1316
2017-06-30T11:42:55.757Z,1104
2017-06-30T11:44:05.743Z,1208
2017-06-30T11:45:15.980Z,1204
2017-06-30T11:46:25.913Z,1264
2017-06-30T11:47:36.173Z,1364
2017-06-30T11:48:46.107Z,1564
2017-06-30T11:49:56.702Z,1588
2017-06-30T11:51:06.742Z,1384
2017-06-30T11:52:17.089Z,1336
2017-06-30T11:53:27.009Z,1192
2017-06-30T11:54:36.512Z,948
2017-06-30T11:55:46.575Z,724
2017-06-30T11:56:55.876Z,736
2017-06-30T11:58:06.122Z,820
2017-06-30T11:59:16.349Z,836
2017-06-30T12:00:26.266Z,788
2017-06-30T12:01:36.029Z,792
2017-06-30T12:02:46.252Z,792
2017-06-30T12:03:56.513Z,724
2017-06-30T12:05:06.422Z,728
2017-06-30T12:06:16.403Z,744
2017-06-30T12:07:26.178Z,744
2017-06-30T12:08:36.436Z,976
2017-06-30T12:09:46.346Z,1120
2017-06-30T12:10:56.570Z,1068
2017-06-30T12:12:05.872Z,1084
2017-06-30T12:13:15.798Z,1192
2017-06-30T12:14:26.030Z,1304
2017-06-30T12:15:35.634Z,1384
2017-06-30T12:16:45.855Z,1412
2017-06-30T12:17:56.076Z,1452
2017-06-30T12:19:05.687Z,1524
2017-06-30T12:20:15.978Z,1544
2017-06-30T12:21:25.291Z,1664
2017-06-30T12:22:35.570Z,1648
2017-06-30T12:23:45.190Z,1676
2017-06-30T12:24:54.820Z,1660
2017-06-30T12:26:04.735Z,1604
2017-06-30T12:27:13.758Z,1508
2017-06-30T12:28:23.705Z,1400
2017-06-30T12:29:33.657Z,1384
2017-06-30T12:30:43.431Z,1360
2017-06-30T12:31:53.347Z,1348
2017-06-30T12:33:02.942Z,1272
2017-06-30T12:34:12.856Z,1224
2017-06-30T12:35:23.086Z,1260
2017-06-30T12:36:33.670Z,1248
2017-06-30T12:37:43.888Z,1396
2017-06-30T12:38:53.809Z,1492
2017-06-30T12:40:04.032Z,1452
2017-06-30T12:41:14.255Z,1420
2017-06-30T12:42:23.983Z,1404
2017-06-30T12:43:33.942Z,1476
2017-06-30T12:44:43.245Z,1360
2017-06-30T12:45:52.856Z,1444
2017-06-30T12:47:02.457Z,1432
2017-06-30T12:48:12.355Z,1488
2017-06-30T12:49:22.574Z,1660
2017-06-30T12:50:32.505Z,1644
2017-06-30T12:51:42.402Z,1564
2017-06-30T12:52:52.316Z,1460
2017-06-30T12:54:02.525Z,1560
2017-06-30T12:55:12.505Z,1620
2017-06-30T12:56:22.151Z,1484
2017-06-30T12:57:32.383Z,1492
2017-06-30T12:58:41.711Z,1444
2017-06-30T12:59:51.386Z,1464
2017-06-30T13:01:00.999Z,1424
2017-06-30T13:02:11.220Z,1428
2017-06-30T13:03:20.840Z,1396
2017-06-30T13:04:31.058Z,1448
2017-06-30T13:05:40.836Z,1432
2017-06-30T13:06:50.750Z,1396
2017-06-30T13:08:00.691Z,1336
2017-06-30T13:09:10.307Z,1276
2017-06-30T13:10:19.665Z,1260
2017-06-30T13:11:29.737Z,1244
2017-06-30T13:12:39.351Z,1248
2017-06-30T13:13:49.279Z,1288
2017-06-30T13:14:58.890Z,1296
2017-06-30T13:16:08.821Z,1312
2017-06-30T13:17:18.744Z,1256
2017-06-30T13:18:28.683Z,1268
2017-06-30T13:19:38.908Z,1208
2017-06-30T13:20:48.821Z,1232
2017-06-30T13:21:58.420Z,1260
2017-06-30T13:23:08.500Z,1204
2017-06-30T13:24:18.105Z,1228
2017-06-30T13:25:28.337Z,1244
2017-06-30T13:26:38.273Z,1228
2017-06-30T13:27:48.196Z,1216
2017-06-30T13:28:58.133Z,1232
2017-06-30T13:30:08.370Z,1188
2017-06-30T13:31:17.985Z,1172
2017-06-30T13:32:27.899Z,1116
2017-06-30T13:33:37.811Z,1068
2017-06-30T13:34:47.573Z,1052
2017-06-30T13:35:57.789Z,1020
2017-06-30T13:37:07.715Z,1048
2017-06-30T13:38:17.631Z,964
2017-06-30T13:39:27.863Z,1056
2017-06-30T13:40:38.818Z,1100
2017-06-30T13:41:48.734Z,1152
2017-06-30T13:42:58.988Z,1244
2017-06-30T13:44:08.604Z,1112
2017-06-30T13:45:18.567Z,1116
2017-06-30T13:46:28.475Z,1112
2017-06-30T13:47:38.411Z,1132
2017-06-30T13:48:48.010Z,1112
2017-06-30T13:49:57.931Z,1180
2017-06-30T13:51:08.152Z,1204
2017-06-30T13:52:18.463Z,1152
2017-06-30T13:53:28.074Z,1156
2017-06-30T13:54:37.995Z,1180
2017-06-30T13:55:48.214Z,1040
2017-06-30T13:56:57.521Z,900
2017-06-30T13:58:07.485Z,816
2017-06-30T13:59:17.402Z,820
2017-06-30T14:00:26.714Z,884
2017-06-30T14:01:36.626Z,1004
2017-06-30T14:02:46.849Z,992
2017-06-30T14:03:57.066Z,1056
2017-06-30T14:05:06.982Z,1132
2017-06-30T14:06:17.184Z,1316
2017-06-30T14:07:27.144Z,1232
2017-06-30T14:08:36.780Z,1032
2017-06-30T14:09:46.487Z,1064
2017-06-30T14:10:56.389Z,992
2017-06-30T14:12:06.311Z,996
2017-06-30T14:13:15.939Z,1104
2017-06-30T14:14:26.169Z,1176
2017-06-30T14:15:36.304Z,1128
2017-06-30T14:16:45.948Z,1064
2017-06-30T14:17:55.863Z,896
2017-06-30T14:19:05.785Z,932
2017-06-30T14:20:15.094Z,1032
2017-06-30T14:21:25.189Z,1168
2017-06-30T14:22:35.104Z,1236
2017-06-30T14:23:45.317Z,1240
2017-06-30T14:24:55.239Z,1260
2017-06-30T14:26:05.151Z,1336
2017-06-30T14:27:15.158Z,1308
2017-06-30T14:28:24.778Z,1228
2017-06-30T14:29:35.009Z,1184
2017-06-30T14:30:45.223Z,1184
2017-06-30T14:31:55.141Z,1172
2017-06-30T14:33:04.891Z,1212
2017-06-30T14:34:14.493Z,1308
2017-06-30T14:35:24.399Z,1412
2017-06-30T14:36:33.997Z,1344
2017-06-30T14:37:43.305Z,1372
2017-06-30T14:38:52.955Z,1304
2017-06-30T14:40:02.859Z,1404
2017-06-30T14:41:12.462Z,1284
2017-06-30T14:42:22.691Z,1204
2017-06-30T14:43:32.629Z,1192
2017-06-30T14:44:42.606Z,1152
2017-06-30T14:45:52.509Z,1120
2017-06-30T14:47:02.725Z,1084
2017-06-30T14:48:12.940Z,1140
2017-06-30T14:49:22.864Z,1164
2017-06-30T14:50:32.936Z,1192
2017-06-30T14:51:42.841Z,1156
2017-06-30T14:52:53.046Z,1080
2017-06-30T14:54:02.963Z,1112
2017-06-30T14:55:12.579Z,1068
2017-06-30T14:56:22.948Z,988
2017-06-30T14:57:32.857Z,996
2017-06-30T14:58:43.140Z,1012
2017-06-30T14:59:52.448Z,1004
2017-06-30T15:01:02.714Z,1004
2017-06-30T15:02:12.782Z,932
2017-06-30T15:03:22.688Z,940
2017-06-30T15:04:32.619Z,1032
2017-06-30T15:05:42.832Z,1064
2017-06-30T15:06:52.753Z,1040
2017-06-30T15:08:02.722Z,1012
2017-06-30T15:09:12.632Z,1068
2017-06-30T15:10:22.849Z,1072
2017-06-30T15:11:33.065Z,1112
2017-06-30T15:12:42.983Z,1104
2017-06-30T15:13:52.991Z,1080
2017-06-30T15:15:02.628Z,1092
2017-06-30T15:16:12.927Z,1140
2017-06-30T15:17:22.728Z,1224
2017-06-30T15:18:32.373Z,1224
2017-06-30T15:19:42.302Z,1256
2017-06-30T15:20:52.428Z,1208
2017-06-30T15:22:02.087Z,1052
2017-06-30T15:23:12.304Z,964
2017-06-30T15:24:21.908Z,968
2017-06-30T15:25:32.360Z,884
2017-06-30T15:26:42.672Z,908
2017-06-30T15:27:52.668Z,884
2017-06-30T15:29:01.975Z,904
2017-06-30T15:30:11.296Z,1008
2017-06-30T15:31:21.214Z,1040
2017-06-30T15:32:31.115Z,1036
2017-06-30T15:33:41.026Z,1040
2017-06-30T15:34:51.240Z,976
2017-06-30T15:36:01.150Z,972
2017-06-30T15:37:11.362Z,1048
2017-06-30T15:38:20.957Z,1108
2017-06-30T15:39:30.887Z,1096
2017-06-30T15:40:40.808Z,1028
2017-06-30T15:41:50.741Z,940
2017-06-30T15:43:00.147Z,940
2017-06-30T15:44:10.061Z,896
2017-06-30T15:45:20.349Z,928
2017-06-30T15:46:30.262Z,992
2017-06-30T15:47:40.554Z,1008
2017-06-30T15:48:50.511Z,968
2017-06-30T15:50:00.727Z,988
2017-06-30T15:51:10.333Z,992
2017-06-30T15:52:20.246Z,1008
2017-06-30T15:53:30.459Z,1012
2017-06-30T15:54:40.840Z,1020
2017-06-30T15:55:50.751Z,984
2017-06-30T15:57:00.967Z,960
2017-06-30T15:58:11.199Z,952
2017-06-30T15:59:21.423Z,1020
2017-06-30T16:00:31.030Z,1064
2017-06-30T16:01:40.934Z,1080